createdAt,value
2018-05-26T00:01:00.274Z,14.10
2018-05-26T00:03:27.844Z,15.20
2018-05-26T00:05:55.494Z,14.77
2018-05-26T00:08:23.221Z,14.40
2018-05-26T00:10:50.937Z,14.57
2018-05-26T00:13:18.488Z,13.87
2018-05-26T00:15:46.097Z,13.17
2018-05-26T00:18:13.655Z,12.60
2018-05-26T00:20:41.261Z,11.43
2018-05-26T00:23:08.889Z,11.37
2018-05-26T00:25:36.456Z,11.00
2018-05-26T00:28:04.028Z,12.10
2018-05-26T00:30:31.637Z,11.17
2018-05-26T00:32:59.191Z,11.13
2018-05-26T00:35:26.740Z,11.73
2018-05-26T00:37:54.361Z,11.37
2018-05-26T00:40:21.908Z,11.67
2018-05-26T00:42:49.671Z,12.60
2018-05-26T00:45:17.388Z,12.87
2018-05-26T00:47:44.952Z,13.80
2018-05-26T00:50:12.516Z,12.67
2018-05-26T00:52:40.244Z,13.23
2018-05-26T00:55:08.062Z,13.13
2018-05-26T00:57:35.805Z,13.30
2018-05-26T01:00:03.699Z,13.97
2018-05-26T01:02:31.257Z,13.03
2018-05-26T01:04:58.932Z,12.40
2018-05-26T01:07:26.494Z,11.77
2018-05-26T01:09:54.253Z,12.40
2018-05-26T01:12:21.801Z,12.63
2018-05-26T01:14:49.361Z,12.17
2018-05-26T01:17:16.914Z,12.87
2018-05-26T01:19:44.465Z,12.77
2018-05-26T01:22:12.161Z,12.70
2018-05-26T01:24:39.761Z,12.03
2018-05-26T01:27:07.340Z,12.23
2018-05-26T01:29:34.889Z,12.23
2018-05-26T01:32:02.733Z,11.90
2018-05-26T01:34:31.096Z,12.07
2018-05-26T01:36:58.641Z,13.10
2018-05-26T01:39:26.288Z,14.33
2018-05-26T01:41:54.108Z,12.70
2018-05-26T01:44:21.766Z,13.07
2018-05-26T01:46:49.447Z,12.63
2018-05-26T01:49:17.156Z,13.10
2018-05-26T01:51:44.712Z,12.73
2018-05-26T01:54:12.387Z,12.40
2018-05-26T01:56:40.011Z,12.50
2018-05-26T01:59:07.726Z,11.67
2018-05-26T02:01:35.446Z,12.37
2018-05-26T02:04:03.011Z,12.00
2018-05-26T02:06:30.699Z,13.87
2018-05-26T02:08:58.403Z,12.73
2018-05-26T02:11:26.131Z,11.33
2018-05-26T02:13:53.672Z,12.73
2018-05-26T02:16:21.224Z,17.87
2018-05-26T02:18:48.979Z,11.27
2018-05-26T02:21:16.545Z,11.73
2018-05-26T02:23:44.309Z,12.13
2018-05-26T02:26:11.873Z,10.87
2018-05-26T02:28:39.645Z,12.07
2018-05-26T02:31:07.213Z,12.23
2018-05-26T02:33:34.891Z,12.33
2018-05-26T02:36:02.503Z,14.37
2018-05-26T02:38:30.118Z,13.73
2018-05-26T02:40:57.686Z,18.17
2018-05-26T02:43:25.361Z,23.57
2018-05-26T02:45:52.933Z,25.30
2018-05-26T02:48:20.679Z,24.03
2018-05-26T02:50:48.415Z,24.03
2018-05-26T02:53:15.976Z,23.40
2018-05-26T02:55:43.525Z,22.73
2018-05-26T02:58:11.261Z,23.03
2018-05-26T03:00:38.823Z,23.63
2018-05-26T03:03:06.447Z,23.00
2018-05-26T03:05:39.541Z,21.93
2018-05-26T03:08:12.973Z,22.67
2018-05-26T03:10:46.016Z,19.77
2018-05-26T03:13:19.101Z,20.23
2018-05-26T03:15:49.153Z,18.87
2018-05-26T03:18:16.929Z,17.53
2018-05-26T03:20:44.496Z,15.60
2018-05-26T03:23:12.059Z,16.10
2018-05-26T03:25:39.620Z,15.00
2018-05-26T03:28:07.172Z,13.63
2018-05-26T03:30:34.980Z,14.10
2018-05-26T03:33:02.539Z,13.37
2018-05-26T03:35:30.098Z,12.93
2018-05-26T03:37:57.717Z,13.63
2018-05-26T03:40:25.269Z,13.80
2018-05-26T03:42:52.882Z,12.67
2018-05-26T03:45:20.440Z,12.00
2018-05-26T03:47:48.048Z,12.53
2018-05-26T03:50:15.597Z,12.57
2018-05-26T03:52:43.141Z,12.13
2018-05-26T03:58:26.321Z,13.53
2018-05-26T04:00:53.991Z,14.07
2018-05-26T04:03:21.552Z,13.40
2018-05-26T04:05:49.297Z,13.67
2018-05-26T04:08:17.110Z,13.50
2018-05-26T04:10:44.800Z,14.43
2018-05-26T04:13:12.351Z,14.10
2018-05-26T04:15:39.952Z,14.40
2018-05-26T04:18:07.518Z,14.63
2018-05-26T04:20:35.217Z,14.43
2018-05-26T04:23:03.027Z,14.23
2018-05-26T04:25:30.585Z,15.20
2018-05-26T04:27:58.147Z,15.00
2018-05-26T04:30:25.692Z,14.67
2018-05-26T04:32:53.249Z,14.77
2018-05-26T04:35:21.030Z,14.57
2018-05-26T04:37:48.664Z,15.90
2018-05-26T04:40:16.272Z,15.23
2018-05-26T04:42:44.005Z,14.70
2018-05-26T04:45:11.572Z,16.00
2018-05-26T04:47:39.174Z,16.83
2018-05-26T04:50:07.031Z,16.43
2018-05-26T04:52:34.621Z,14.97
2018-05-26T04:55:02.188Z,14.43
2018-05-26T04:57:29.736Z,13.20
2018-05-26T04:59:57.297Z,13.87
2018-05-26T05:02:24.961Z,13.27
2018-05-26T05:04:52.520Z,12.40
2018-05-26T05:07:20.256Z,11.73
2018-05-26T05:09:47.925Z,11.10
2018-05-26T05:12:15.685Z,11.07
2018-05-26T05:14:43.310Z,11.70
2018-05-26T05:17:10.864Z,10.30
2018-05-26T05:19:38.527Z,11.27
2018-05-26T05:22:06.137Z,9.73
2018-05-26T05:24:33.753Z,10.33
2018-05-26T05:27:01.426Z,9.97
2018-05-26T05:29:29.168Z,9.23
2018-05-26T05:31:56.897Z,9.07
2018-05-26T05:34:24.759Z,9.63
2018-05-26T05:36:52.325Z,9.40
2018-05-26T05:39:20.005Z,9.63
2018-05-26T05:41:47.563Z,8.53
2018-05-26T05:44:15.230Z,8.43
2018-05-26T05:46:42.836Z,8.90
2018-05-26T05:49:10.410Z,10.07
2018-05-26T05:51:38.013Z,9.67
2018-05-26T05:54:05.803Z,9.50
2018-05-26T05:56:33.541Z,8.87
2018-05-26T05:59:01.100Z,7.97
2018-05-26T06:01:28.757Z,10.20
2018-05-26T06:03:56.295Z,7.97
2018-05-26T06:06:23.848Z,8.77
2018-05-26T06:08:51.708Z,7.87
2018-05-26T06:11:19.429Z,8.53
2018-05-26T06:13:47.248Z,8.00
2018-05-26T06:16:14.958Z,7.40
2018-05-26T06:18:42.525Z,8.17
2018-05-26T06:21:10.190Z,13.83
2018-05-26T06:23:38.033Z,15.30
2018-05-26T06:26:05.636Z,9.37
2018-05-26T06:28:33.513Z,9.27
2018-05-26T06:31:01.076Z,9.10
2018-05-26T06:33:28.681Z,9.73
2018-05-26T06:35:56.259Z,13.87
2018-05-26T06:38:23.934Z,12.93
2018-05-26T06:40:51.723Z,9.97
2018-05-26T06:43:19.333Z,9.37
2018-05-26T06:45:46.941Z,9.37
2018-05-26T06:48:14.550Z,11.37
2018-05-26T06:50:42.205Z,9.90
2018-05-26T06:53:09.828Z,10.10
2018-05-26T06:55:37.655Z,9.93
2018-05-26T06:58:05.224Z,9.10
2018-05-26T07:00:32.896Z,9.50
2018-05-26T07:03:00.506Z,9.43
2018-05-26T07:05:28.052Z,10.07
2018-05-26T07:07:55.621Z,10.20
2018-05-26T07:10:23.188Z,9.30
2018-05-26T07:12:50.761Z,9.10
2018-05-26T07:15:18.361Z,9.13
2018-05-26T07:17:46.563Z,9.57
2018-05-26T07:20:14.183Z,11.93
2018-05-26T07:22:41.751Z,16.93
2018-05-26T07:25:09.308Z,48.23
2018-05-26T07:27:36.993Z,90.27
2018-05-26T07:30:04.560Z,11.70
2018-05-26T07:32:32.100Z,9.20
2018-05-26T07:34:59.669Z,9.30
2018-05-26T07:37:27.216Z,8.67
2018-05-26T07:39:54.920Z,10.03
2018-05-26T07:42:22.468Z,9.17
2018-05-26T07:44:50.015Z,9.40
2018-05-26T07:47:17.604Z,9.33
2018-05-26T07:49:45.152Z,8.70
2018-05-26T07:52:12.713Z,8.53
2018-05-26T07:54:40.260Z,8.27
2018-05-26T07:57:07.835Z,7.83
2018-05-26T07:59:35.384Z,9.03
2018-05-26T08:02:03.005Z,9.53
2018-05-26T08:04:30.548Z,8.90
2018-05-26T08:06:58.100Z,9.60
2018-05-26T08:09:25.654Z,9.40
2018-05-26T08:11:53.205Z,9.70
2018-05-26T08:14:20.764Z,9.70
2018-05-26T08:16:48.401Z,9.97
2018-05-26T08:19:15.952Z,8.90
2018-05-26T08:21:43.505Z,8.70
2018-05-26T08:24:11.065Z,9.37
2018-05-26T08:26:38.620Z,9.27
2018-05-26T08:29:06.172Z,9.53
2018-05-26T08:31:33.733Z,8.73
2018-05-26T08:34:01.285Z,9.17
2018-05-26T08:36:28.845Z,9.10
2018-05-26T08:38:56.403Z,9.70
2018-05-26T08:41:24.013Z,9.33
2018-05-26T08:43:51.559Z,9.47
2018-05-26T08:46:19.103Z,8.67
2018-05-26T08:48:46.684Z,9.20
2018-05-26T08:51:14.240Z,8.67
2018-05-26T08:53:41.839Z,8.87
2018-05-26T08:56:09.381Z,8.83
2018-05-26T08:58:36.948Z,9.03
2018-05-26T09:01:04.505Z,8.97
2018-05-26T09:03:32.164Z,8.80
2018-05-26T09:05:59.689Z,8.93
2018-05-26T09:08:27.240Z,8.93
2018-05-26T09:10:54.810Z,8.67
2018-05-26T09:13:22.360Z,9.17
2018-05-26T09:15:50.266Z,9.10
2018-05-26T09:18:17.865Z,8.53
2018-05-26T09:20:45.442Z,8.60
2018-05-26T09:23:12.994Z,8.83
2018-05-26T09:25:40.540Z,9.10
2018-05-26T09:28:08.096Z,8.17
2018-05-26T09:30:35.741Z,7.90
2018-05-26T09:33:03.292Z,8.30
2018-05-26T09:35:30.837Z,8.37
2018-05-26T09:37:58.437Z,8.17
2018-05-26T09:40:25.993Z,7.97
2018-05-26T09:42:53.535Z,7.80
2018-05-26T09:45:21.084Z,8.30
2018-05-26T09:47:48.633Z,8.60
2018-05-26T09:50:16.193Z,8.40
2018-05-26T09:52:43.749Z,7.60
2018-05-26T09:55:11.308Z,10.20
2018-05-26T09:57:38.905Z,11.77
2018-05-26T10:00:06.549Z,19.23
2018-05-26T10:02:34.103Z,9.13
2018-05-26T10:05:01.660Z,8.07
2018-05-26T10:07:29.213Z,8.00
2018-05-26T10:09:56.772Z,7.90
2018-05-26T10:12:24.346Z,7.43
2018-05-26T10:14:51.906Z,7.90
2018-05-26T10:17:19.472Z,8.00
2018-05-26T10:19:47.012Z,7.90
2018-05-26T10:22:14.625Z,7.37
2018-05-26T10:24:42.168Z,8.50
2018-05-26T10:27:09.720Z,7.93
2018-05-26T10:29:37.276Z,7.97
2018-05-26T10:32:04.865Z,8.33
2018-05-26T10:34:32.434Z,7.03
2018-05-26T10:36:59.984Z,7.87
2018-05-26T10:39:27.628Z,8.50
2018-05-26T10:41:55.189Z,7.87
2018-05-26T10:44:22.837Z,7.37
2018-05-26T10:46:50.402Z,7.00
2018-05-26T10:49:18.021Z,9.00
2018-05-26T10:51:45.585Z,14.50
2018-05-26T10:54:13.137Z,8.30
2018-05-26T10:56:40.977Z,7.43
2018-05-26T10:59:08.543Z,7.73
2018-05-26T11:01:36.137Z,7.03
2018-05-26T11:04:04.265Z,7.67
2018-05-26T11:06:43.501Z,7.37
2018-05-26T11:09:11.058Z,7.67
2018-05-26T11:11:38.608Z,7.50
2018-05-26T11:14:06.176Z,7.73
2018-05-26T11:16:33.761Z,7.23
2018-05-26T11:19:01.332Z,7.57
2018-05-26T11:21:28.896Z,8.13
2018-05-26T11:23:56.578Z,7.57
2018-05-26T11:26:24.064Z,8.03
2018-05-26T11:28:51.710Z,8.17
2018-05-26T11:31:19.241Z,6.93
2018-05-26T11:33:46.787Z,32.83
2018-05-26T11:36:14.380Z,25.90
2018-05-26T11:38:41.928Z,7.87
2018-05-26T11:41:09.487Z,6.00
2018-05-26T11:43:37.054Z,6.90
2018-05-26T11:46:04.636Z,7.73
2018-05-26T11:48:32.185Z,6.83
2018-05-26T11:50:59.781Z,6.40
2018-05-26T11:53:27.331Z,6.50
2018-05-26T11:55:54.881Z,6.63
2018-05-26T11:58:22.436Z,6.50
2018-05-26T12:00:49.984Z,5.80
2018-05-26T12:03:17.557Z,5.50
2018-05-26T12:05:45.105Z,5.57
2018-05-26T12:08:12.676Z,4.87
2018-05-26T12:10:40.248Z,4.77
2018-05-26T12:13:07.805Z,4.23
2018-05-26T12:15:35.367Z,4.23
2018-05-26T12:18:02.929Z,4.63
2018-05-26T12:20:30.492Z,4.73
2018-05-26T12:22:58.085Z,4.40
2018-05-26T12:25:25.711Z,4.70
2018-05-26T12:27:53.287Z,4.80
2018-05-26T12:30:20.836Z,4.60
2018-05-26T12:32:48.510Z,4.43
2018-05-26T12:35:16.338Z,4.97
2018-05-26T12:37:43.888Z,5.00
2018-05-26T12:40:11.440Z,5.00
2018-05-26T12:42:38.989Z,4.40
2018-05-26T12:45:06.603Z,5.33
2018-05-26T12:47:34.148Z,3.83
2018-05-26T12:50:01.701Z,4.50
2018-05-26T12:52:29.251Z,4.53
2018-05-26T12:54:56.799Z,4.20
2018-05-26T12:57:24.363Z,4.03
2018-05-26T12:59:51.921Z,4.23
2018-05-26T13:02:19.523Z,7.27
2018-05-26T13:04:47.085Z,9.07
2018-05-26T13:07:14.702Z,7.20
2018-05-26T13:09:42.261Z,4.23
2018-05-26T13:12:09.819Z,4.33
2018-05-26T13:14:37.412Z,4.57
2018-05-26T13:17:04.989Z,4.33
2018-05-26T13:19:32.559Z,4.83
2018-05-26T13:22:00.114Z,4.10
2018-05-26T13:24:27.676Z,4.30
2018-05-26T13:26:55.220Z,4.03
2018-05-26T13:29:22.863Z,4.13
2018-05-26T13:31:50.432Z,3.70
2018-05-26T13:34:17.993Z,4.10
2018-05-26T13:36:45.550Z,3.47
2018-05-26T13:39:13.096Z,4.07
2018-05-26T13:41:40.664Z,4.53
2018-05-26T13:44:08.211Z,3.70
2018-05-26T13:46:35.772Z,4.37
2018-05-26T13:49:03.353Z,4.20
2018-05-26T13:51:30.956Z,4.03
2018-05-26T13:53:58.512Z,3.70
2018-05-26T13:56:26.171Z,3.93
2018-05-26T13:58:53.692Z,4.03
2018-05-26T14:01:21.264Z,4.47
2018-05-26T14:03:48.826Z,4.53
2018-05-26T14:06:16.583Z,4.07
2018-05-26T14:08:44.144Z,4.07
2018-05-26T14:11:11.768Z,4.43
2018-05-26T14:13:39.524Z,4.20
2018-05-26T14:16:07.103Z,4.77
2018-05-26T14:18:34.737Z,4.23
2018-05-26T14:21:02.350Z,4.30
2018-05-26T14:23:29.949Z,8.57
2018-05-26T14:25:57.589Z,3.90
2018-05-26T14:28:25.141Z,4.10
2018-05-26T14:30:52.820Z,4.20
2018-05-26T14:33:20.392Z,4.10
2018-05-26T14:35:48.017Z,4.07
2018-05-26T14:38:15.571Z,4.60
2018-05-26T14:40:43.122Z,3.90
2018-05-26T14:43:10.721Z,4.17
2018-05-26T14:45:38.283Z,4.77
2018-05-26T14:48:05.856Z,4.60
2018-05-26T14:50:33.406Z,4.00
2018-05-26T14:53:01.108Z,4.03
2018-05-26T14:55:28.833Z,3.70
2018-05-26T14:57:56.674Z,4.33
2018-05-26T15:00:24.289Z,4.20
2018-05-26T15:02:51.852Z,3.77
2018-05-26T15:05:19.425Z,5.37
2018-05-26T15:07:47.162Z,3.93
2018-05-26T15:10:14.787Z,3.70
2018-05-26T15:12:42.385Z,3.80
2018-05-26T15:15:09.956Z,4.00
2018-05-26T15:17:37.558Z,3.67
2018-05-26T15:20:05.189Z,3.57
2018-05-26T15:22:32.741Z,4.20
2018-05-26T15:25:00.288Z,3.60
2018-05-26T15:27:27.840Z,3.83
2018-05-26T15:29:55.390Z,4.10
2018-05-26T15:32:22.965Z,4.70
2018-05-26T15:34:50.521Z,4.30
2018-05-26T15:37:18.139Z,4.87
2018-05-26T15:39:45.753Z,4.93
2018-05-26T15:42:13.306Z,4.90
2018-05-26T15:44:40.912Z,5.40
2018-05-26T15:47:08.479Z,5.30
2018-05-26T15:49:36.056Z,6.13
2018-05-26T15:52:03.635Z,6.00
2018-05-26T15:54:31.219Z,6.07
2018-05-26T15:56:58.765Z,5.40
2018-05-26T15:59:26.380Z,6.20
2018-05-26T16:01:53.930Z,5.33
2018-05-26T16:04:21.488Z,5.60
2018-05-26T16:06:49.045Z,5.63
2018-05-26T16:09:16.622Z,5.40
2018-05-26T16:11:44.189Z,5.13
2018-05-26T16:14:11.738Z,5.40
2018-05-26T16:16:39.340Z,6.17
2018-05-26T16:19:06.910Z,5.13
2018-05-26T16:21:34.521Z,5.10
2018-05-26T16:24:02.077Z,5.97
2018-05-26T16:26:29.633Z,5.03
2018-05-26T16:28:57.426Z,5.53
2018-05-26T16:31:25.027Z,5.67
2018-05-26T16:33:52.613Z,5.23
2018-05-26T16:36:20.172Z,5.17
2018-05-26T16:38:47.804Z,5.70
2018-05-26T16:41:15.365Z,5.57
2018-05-26T16:43:42.944Z,4.80
2018-05-26T16:46:10.528Z,7.27
2018-05-26T16:48:38.093Z,5.80
2018-05-26T16:51:05.674Z,9.57
2018-05-26T16:53:33.244Z,13.93
2018-05-26T16:56:00.865Z,8.83
2018-05-26T16:58:28.542Z,6.57
2018-05-26T17:00:56.212Z,6.10
2018-05-26T17:03:23.778Z,15.97
2018-05-26T17:05:51.897Z,7.50
2018-05-26T17:08:19.508Z,12.53
2018-05-26T17:10:47.107Z,5.93
2018-05-26T17:13:14.786Z,12.67
2018-05-26T17:15:42.401Z,8.53
2018-05-26T17:18:09.981Z,10.93
2018-05-26T17:20:37.549Z,13.20
2018-05-26T17:23:05.130Z,25.63
2018-05-26T17:25:32.720Z,20.40
2018-05-26T17:28:00.287Z,7.00
2018-05-26T17:30:27.878Z,18.83
2018-05-26T17:32:55.432Z,6.63
2018-05-26T17:35:23.042Z,6.03
2018-05-26T17:37:50.597Z,5.97
2018-05-26T17:40:18.173Z,5.93
2018-05-26T17:42:45.756Z,7.10
2018-05-26T17:45:13.338Z,5.70
2018-05-26T17:47:40.920Z,5.53
2018-05-26T17:50:08.478Z,5.93
2018-05-26T17:52:36.048Z,12.10
2018-05-26T17:55:03.703Z,8.20
2018-05-26T17:57:31.405Z,10.47
2018-05-26T17:59:59.036Z,9.20
2018-05-26T18:02:26.654Z,7.93
2018-05-26T18:04:54.243Z,14.07
2018-05-26T18:07:21.886Z,11.33
2018-05-26T18:09:49.479Z,9.87
2018-05-26T18:12:17.047Z,7.70
2018-05-26T18:14:44.616Z,11.30
2018-05-26T18:17:12.178Z,10.67
2018-05-26T18:19:39.796Z,9.60
2018-05-26T18:22:07.369Z,8.43
2018-05-26T18:24:34.921Z,7.17
2018-05-26T18:27:02.493Z,8.23
2018-05-26T18:29:30.081Z,9.10
2018-05-26T18:31:57.703Z,9.40
2018-05-26T18:34:25.346Z,8.67
2018-05-26T18:36:53.172Z,7.70
2018-05-26T18:39:21.064Z,7.27
2018-05-26T18:41:49.004Z,7.10
2018-05-26T18:44:16.884Z,6.00
2018-05-26T18:46:44.836Z,6.53
2018-05-26T18:49:12.768Z,7.83
2018-05-26T18:51:41.076Z,6.57
2018-05-26T18:54:09.044Z,7.27
2018-05-26T18:56:36.881Z,6.30
2018-05-26T18:59:04.841Z,6.17
2018-05-26T19:01:32.740Z,6.40
2018-05-26T19:04:00.776Z,6.10
2018-05-26T19:06:28.744Z,5.93
2018-05-26T19:08:56.613Z,5.90
2018-05-26T19:11:24.849Z,6.73
2018-05-26T19:13:53.241Z,8.57
2018-05-26T19:16:21.229Z,11.50
2018-05-26T19:18:49.193Z,7.13
2018-05-26T19:21:17.199Z,9.20
2018-05-26T19:23:45.151Z,6.87
2018-05-26T19:26:13.563Z,7.33
2018-05-26T19:28:41.531Z,7.57
2018-05-26T19:31:09.481Z,7.87
2018-05-26T19:33:37.813Z,7.23
2018-05-26T19:36:06.213Z,7.07
2018-05-26T19:38:34.478Z,6.43
2018-05-26T19:41:02.679Z,7.33
2018-05-26T19:43:31.203Z,6.63
2018-05-26T19:45:59.519Z,7.00
2018-05-26T19:48:27.632Z,6.43
2018-05-26T19:50:55.973Z,6.40
2018-05-26T19:53:24.388Z,6.13
2018-05-26T19:55:52.811Z,5.50
2018-05-26T19:58:20.878Z,6.00
2018-05-26T20:00:49.023Z,6.57
2018-05-26T20:03:17.264Z,7.10
2018-05-26T20:05:45.690Z,6.93
2018-05-26T20:08:14.000Z,6.03
2018-05-26T20:10:42.416Z,6.33
2018-05-26T20:13:10.537Z,6.47
2018-05-26T20:15:38.999Z,6.13
2018-05-26T20:18:07.392Z,6.43
2018-05-26T20:20:35.546Z,6.20
2018-05-26T20:23:03.423Z,6.17
2018-05-26T20:25:31.434Z,6.83
2018-05-26T20:27:59.362Z,6.87
2018-05-26T20:30:27.384Z,8.27
2018-05-26T20:32:55.099Z,7.27
2018-05-26T20:35:23.259Z,7.40
2018-05-26T20:37:51.019Z,7.80
2018-05-26T20:40:18.700Z,7.80
2018-05-26T20:42:46.478Z,7.23
2018-05-26T20:45:14.056Z,7.70
2018-05-26T20:47:41.648Z,7.80
2018-05-26T20:50:09.333Z,6.80
2018-05-26T20:52:36.852Z,7.50
2018-05-26T20:55:04.436Z,7.50
2018-05-26T20:57:31.988Z,6.93
2018-05-26T20:59:59.581Z,6.33
2018-05-26T21:02:27.138Z,6.57
2018-05-26T21:04:54.692Z,6.47
2018-05-26T21:07:22.252Z,7.70
2018-05-26T21:09:49.808Z,7.93
2018-05-26T21:12:17.368Z,7.13
2018-05-26T21:14:44.924Z,7.70
2018-05-26T21:17:12.533Z,8.00
2018-05-26T21:19:40.088Z,8.50
2018-05-26T21:22:07.648Z,8.90
2018-05-26T21:24:35.228Z,8.87
2018-05-26T21:27:02.783Z,8.63
2018-05-26T21:29:30.349Z,8.07
2018-05-26T21:31:57.896Z,8.83
2018-05-26T21:34:25.469Z,9.43
2018-05-26T21:36:53.018Z,8.33
2018-05-26T21:39:20.635Z,8.77
2018-05-26T21:41:48.472Z,8.73
2018-05-26T21:44:16.025Z,7.63
2018-05-26T21:46:43.589Z,8.20
2018-05-26T21:49:11.169Z,8.13
2018-05-26T21:51:38.724Z,9.10
2018-05-26T21:54:06.287Z,8.70
2018-05-26T21:56:33.848Z,8.27
2018-05-26T21:59:01.401Z,8.27
2018-05-26T22:01:29.057Z,7.70
2018-05-26T22:03:56.615Z,9.10
2018-05-26T22:06:24.199Z,8.27
2018-05-26T22:08:51.747Z,9.93
2018-05-26T22:11:19.292Z,8.30
2018-05-26T22:13:46.849Z,8.30
2018-05-26T22:16:14.408Z,11.23
2018-05-26T22:18:41.964Z,9.13
2018-05-26T22:21:09.512Z,8.40
2018-05-26T22:23:37.177Z,8.07
2018-05-26T22:26:04.748Z,9.17
2018-05-26T22:28:32.294Z,9.03
2018-05-26T22:30:59.856Z,9.80
2018-05-26T22:33:27.404Z,9.87
2018-05-26T22:35:54.989Z,12.10
2018-05-26T22:38:22.537Z,11.63
2018-05-26T22:40:50.102Z,11.60
2018-05-26T22:43:17.705Z,10.60
2018-05-26T22:45:45.252Z,9.40
2018-05-26T22:48:12.828Z,10.13
2018-05-26T22:50:40.373Z,10.13
2018-05-26T22:53:07.928Z,8.97
2018-05-26T22:55:35.481Z,8.47
2018-05-26T22:58:03.030Z,9.17
2018-05-26T23:00:30.588Z,9.70
2018-05-26T23:02:58.174Z,9.70
2018-05-26T23:05:25.730Z,9.47
2018-05-26T23:07:53.272Z,9.40
2018-05-26T23:10:20.884Z,9.53
2018-05-26T23:12:48.432Z,8.93
2018-05-26T23:15:15.971Z,8.77
2018-05-26T23:17:43.528Z,8.63
2018-05-26T23:20:11.080Z,8.93
2018-05-26T23:22:38.644Z,8.57
2018-05-26T23:25:06.188Z,9.93
2018-05-26T23:27:33.802Z,9.37
2018-05-26T23:30:01.348Z,9.73
2018-05-26T23:32:28.925Z,10.00
2018-05-26T23:34:56.482Z,9.60
2018-05-26T23:37:24.020Z,9.80
2018-05-26T23:39:51.580Z,9.63
2018-05-26T23:42:19.126Z,9.67
2018-05-26T23:44:46.728Z,9.00
2018-05-26T23:47:14.273Z,9.53
2018-05-26T23:49:41.827Z,9.03
2018-05-26T23:52:09.387Z,9.20
2018-05-26T23:54:36.939Z,9.10
2018-05-26T23:57:04.536Z,10.97
2018-05-26T23:59:32.850Z,9.93
